sensor_id;sensor_type;location;lat;lon;timestamp;pressure;altitude;pressure_sealevel;temperature;humidity
9225;BME280;4647;48.072;11.616;2023-04-27T14:37:42;95338.91;;;17.13;43.06
9225;BME280;4647;48.072;11.616;2023-04-27T14:40:11;95348.13;;;17.47;42.40
9225;BME280;4647;48.072;11.616;2023-04-27T14:42:40;95343.50;;;16.85;43.87
9225;BME280;4647;48.072;11.616;2023-04-27T14:45:09;95304.94;;;16.18;44.69
9225;BME280;4647;48.072;11.616;2023-04-27T14:47:40;95350.56;;;16.52;44.05
9225;BME280;4647;48.072;11.616;2023-04-27T14:50:10;95345.47;;;16.63;44.94
9225;BME280;4647;48.072;11.616;2023-04-27T14:52:59;95347.84;;;17.05;43.67
9225;BME280;4647;48.072;11.616;2023-04-27T14:55:33;95347.97;;;17.41;42.57
9225;BME280;4647;48.072;11.616;2023-04-27T14:58:01;95346.94;;;16.77;43.74
9225;BME280;4647;48.072;11.616;2023-04-27T15:00:42;95342.66;;;16.67;44.12
9225;BME280;4647;48.072;11.616;2023-04-27T15:03:18;95341.47;;;16.77;44.21
9225;BME280;4647;48.072;11.616;2023-04-27T15:05:56;95340.19;;;16.91;44.27
9225;BME280;4647;48.072;11.616;2023-04-27T15:08:30;95340.94;;;16.91;44.21
9225;BME280;4647;48.072;11.616;2023-04-27T15:11:04;95340.25;;;17.58;42.60
9225;BME280;4647;48.072;11.616;2023-04-27T15:13:47;95336.66;;;16.81;44.30
9225;BME280;4647;48.072;11.616;2023-04-27T15:16:18;95338.69;;;16.99;44.02
9225;BME280;4647;48.072;11.616;2023-04-27T15:18:49;95337.91;;;17.38;43.48
9225;BME280;4647;48.072;11.616;2023-04-27T15:21:21;95337.38;;;17.12;43.81
9225;BME280;4647;48.072;11.616;2023-04-27T15:23:54;95342.16;;;17.30;43.31
9225;BME280;4647;48.072;11.616;2023-04-27T15:26:32;95346.88;;;17.30;43.21
9225;BME280;4647;48.072;11.616;2023-04-27T15:29:01;95345.50;;;17.93;41.98
9225;BME280;4647;48.072;11.616;2023-04-27T15:31:41;95335.00;;;18.46;40.28
9225;BME280;4647;48.072;11.616;2023-04-27T15:34:14;95349.88;;;18.82;39.41
9225;BME280;4647;48.072;11.616;2023-04-27T15:36:43;95344.41;;;18.63;40.38
9225;BME280;4647;48.072;11.616;2023-04-27T15:39:15;95341.72;;;18.08;41.27
9225;BME280;4647;48.072;11.616;2023-04-27T15:41:44;95340.41;;;16.74;43.70
9225;BME280;4647;48.072;11.616;2023-04-27T15:44:16;95327.53;;;16.84;43.71
9225;BME280;4647;48.072;11.616;2023-04-27T15:46:47;95326.63;;;16.87;43.67
9225;BME280;4647;48.072;11.616;2023-04-27T15:49:15;95320.81;;;16.32;44.67
9225;BME280;4647;48.072;11.616;2023-04-27T15:51:44;95322.38;;;16.33;44.79
9225;BME280;4647;48.072;11.616;2023-04-27T15:54:16;95331.13;;;16.28;45.43
9225;BME280;4647;48.072;11.616;2023-04-27T15:56:45;95326.16;;;15.92;46.71
9225;BME280;4647;48.072;11.616;2023-04-27T15:59:13;95326.47;;;15.47;48.44
9225;BME280;4647;48.072;11.616;2023-04-27T16:01:42;95326.72;;;16.09;46.26
9225;BME280;4647;48.072;11.616;2023-04-27T16:04:13;95338.94;;;16.17;45.84
9225;BME280;4647;48.072;11.616;2023-04-27T16:06:42;95332.63;;;15.85;46.47
9225;BME280;4647;48.072;11.616;2023-04-27T16:09:10;95337.97;;;15.89;46.15
9225;BME280;4647;48.072;11.616;2023-04-27T16:11:42;95345.66;;;16.03;45.45
9225;BME280;4647;48.072;11.616;2023-04-27T16:14:12;95336.00;;;16.55;44.76
9225;BME280;4647;48.072;11.616;2023-04-27T16:16:40;95312.22;;;16.43;44.80
9225;BME280;4647;48.072;11.616;2023-04-27T16:19:13;95324.50;;;16.38;44.71
9225;BME280;4647;48.072;11.616;2023-04-27T16:21:45;95326.25;;;16.76;44.00
9225;BME280;4647;48.072;11.616;2023-04-27T16:24:23;95325.59;;;16.94;43.56
9225;BME280;4647;48.072;11.616;2023-04-27T16:26:57;95320.88;;;16.94;43.88
9225;BME280;4647;48.072;11.616;2023-04-27T16:29:26;95320.13;;;16.94;42.79
9225;BME280;4647;48.072;11.616;2023-04-27T16:32:01;95327.31;;;16.69;43.30
9225;BME280;4647;48.072;11.616;2023-04-27T16:34:36;95320.75;;;16.67;43.92
9225;BME280;4647;48.072;11.616;2023-04-27T16:37:06;95327.22;;;16.60;44.16
9225;BME280;4647;48.072;11.616;2023-04-27T16:39:36;95328.97;;;16.45;45.15
9225;BME280;4647;48.072;11.616;2023-04-27T16:42:08;95327.56;;;16.40;45.78
9225;BME280;4647;48.072;11.616;2023-04-27T16:44:54;95328.66;;;16.21;46.03
9225;BME280;4647;48.072;11.616;2023-04-27T16:47:29;95332.75;;;16.04;46.48
9225;BME280;4647;48.072;11.616;2023-04-27T16:50:03;95326.84;;;16.27;45.76
9225;BME280;4647;48.072;11.616;2023-04-27T16:52:34;95314.94;;;16.34;45.87
9225;BME280;4647;48.072;11.616;2023-04-27T16:55:14;95321.97;;;16.22;45.14
9225;BME280;4647;48.072;11.616;2023-04-27T16:57:46;95323.50;;;16.67;44.13
9225;BME280;4647;48.072;11.616;2023-04-27T17:00:15;95319.13;;;16.78;45.12
9225;BME280;4647;48.072;11.616;2023-04-27T17:02:49;95314.09;;;16.24;44.83
9225;BME280;4647;48.072;11.616;2023-04-27T17:05:28;95301.59;;;15.79;45.62
9225;BME280;4647;48.072;11.616;2023-04-27T17:08:05;95319.72;;;15.39;46.97
9225;BME280;4647;48.072;11.616;2023-04-27T17:10:35;95314.94;;;15.04;47.02
9225;BME280;4647;48.072;11.616;2023-04-27T17:13:06;95312.44;;;14.97;47.58
9225;BME280;4647;48.072;11.616;2023-04-27T17:15:36;95324.34;;;14.91;48.28
9225;BME280;4647;48.072;11.616;2023-04-27T17:18:05;95307.72;;;14.60;48.47
9225;BME280;4647;48.072;11.616;2023-04-27T17:20:36;95327.03;;;14.65;48.27
9225;BME280;4647;48.072;11.616;2023-04-27T17:23:04;95317.97;;;14.56;48.30
9225;BME280;4647;48.072;11.616;2023-04-27T17:25:33;95321.69;;;14.49;49.13
9225;BME280;4647;48.072;11.616;2023-04-27T17:28:02;95313.97;;;14.31;49.99
9225;BME280;4647;48.072;11.616;2023-04-27T17:30:33;95308.91;;;14.17;50.53
9225;BME280;4647;48.072;11.616;2023-04-27T17:33:08;95308.16;;;14.17;50.68
9225;BME280;4647;48.072;11.616;2023-04-27T17:35:50;95299.97;;;14.04;51.09
9225;BME280;4647;48.072;11.616;2023-04-27T17:38:21;95315.75;;;13.96;50.90
9225;BME280;4647;48.072;11.616;2023-04-27T17:40:54;95317.50;;;14.03;51.36
9225;BME280;4647;48.072;11.616;2023-04-27T17:43:26;95319.06;;;14.58;49.27
9225;BME280;4647;48.072;11.616;2023-04-27T17:46:17;95306.84;;;14.88;48.88
9225;BME280;4647;48.072;11.616;2023-04-27T17:48:53;95314.97;;;14.92;48.27
9225;BME280;4647;48.072;11.616;2023-04-27T17:51:32;95309.16;;;14.90;48.28
9225;BME280;4647;48.072;11.616;2023-04-27T17:54:04;95324.75;;;14.89;48.34
9225;BME280;4647;48.072;11.616;2023-04-27T17:56:36;95319.09;;;14.84;48.13
9225;BME280;4647;48.072;11.616;2023-04-27T17:59:05;95320.28;;;14.83;47.91
9225;BME280;4647;48.072;11.616;2023-04-27T18:01:37;95334.91;;;14.89;47.16
9225;BME280;4647;48.072;11.616;2023-04-27T18:04:06;95325.06;;;14.66;47.80
9225;BME280;4647;48.072;11.616;2023-04-27T18:06:34;95323.66;;;14.20;49.33
9225;BME280;4647;48.072;11.616;2023-04-27T18:09:03;95320.88;;;13.78;51.02
9225;BME280;4647;48.072;11.616;2023-04-27T18:11:32;95323.50;;;13.36;52.28
9225;BME280;4647;48.072;11.616;2023-04-27T18:14:00;95328.91;;;13.04;53.52
9225;BME280;4647;48.072;11.616;2023-04-27T18:16:29;95332.16;;;12.63;54.72
9225;BME280;4647;48.072;11.616;2023-04-27T18:19:00;95330.66;;;12.42;55.93
9225;BME280;4647;48.072;11.616;2023-04-27T18:21:29;95324.38;;;12.25;57.47
9225;BME280;4647;48.072;11.616;2023-04-27T18:23:59;95325.72;;;11.97;58.44
9225;BME280;4647;48.072;11.616;2023-04-27T18:26:27;95325.31;;;11.75;60.09
9225;BME280;4647;48.072;11.616;2023-04-27T18:28:56;95323.31;;;11.56;60.69
9225;BME280;4647;48.072;11.616;2023-04-27T18:31:25;95324.34;;;11.42;61.62
9225;BME280;4647;48.072;11.616;2023-04-27T18:33:54;95324.50;;;11.31;62.25
9225;BME280;4647;48.072;11.616;2023-04-27T18:36:26;95334.09;;;11.16;62.92
9225;BME280;4647;48.072;11.616;2023-04-27T18:38:57;95337.78;;;11.02;63.54
9225;BME280;4647;48.072;11.616;2023-04-27T18:41:27;95337.88;;;10.95;64.39
9225;BME280;4647;48.072;11.616;2023-04-27T18:44:04;95337.44;;;10.73;65.34
9225;BME280;4647;48.072;11.616;2023-04-27T18:46:33;95345.16;;;10.75;65.60
9225;BME280;4647;48.072;11.616;2023-04-27T18:49:07;95347.09;;;10.74;65.63
9225;BME280;4647;48.072;11.616;2023-04-27T18:51:47;95344.72;;;10.50;66.29
9225;BME280;4647;48.072;11.616;2023-04-27T18:54:17;95348.59;;;10.49;66.73
9225;BME280;4647;48.072;11.616;2023-04-27T18:56:46;95362.25;;;10.38;67.42
9225;BME280;4647;48.072;11.616;2023-04-27T18:59:20;95353.56;;;10.23;68.03
9225;BME280;4647;48.072;11.616;2023-04-27T19:01:54;95364.09;;;10.10;68.51
9225;BME280;4647;48.072;11.616;2023-04-27T19:04:27;95359.47;;;10.11;68.86
9225;BME280;4647;48.072;11.616;2023-04-27T19:07:03;95358.06;;;9.99;69.22
9225;BME280;4647;48.072;11.616;2023-04-27T19:09:35;95360.44;;;9.94;69.46
9225;BME280;4647;48.072;11.616;2023-04-27T19:12:07;95365.88;;;9.90;69.82
9225;BME280;4647;48.072;11.616;2023-04-27T19:14:47;95362.06;;;9.84;69.97
9225;BME280;4647;48.072;11.616;2023-04-27T19:17:16;95366.00;;;9.79;70.49
9225;BME280;4647;48.072;11.616;2023-04-27T19:19:46;95364.53;;;9.71;70.72
9225;BME280;4647;48.072;11.616;2023-04-27T19:22:20;95375.34;;;9.71;70.69
9225;BME280;4647;48.072;11.616;2023-04-27T19:24:50;95367.44;;;9.50;71.91
9225;BME280;4647;48.072;11.616;2023-04-27T19:27:21;95372.56;;;9.37;72.51
9225;BME280;4647;48.072;11.616;2023-04-27T19:29:54;95373.75;;;9.33;73.14
9225;BME280;4647;48.072;11.616;2023-04-27T19:32:25;95372.25;;;9.28;73.27
9225;BME280;4647;48.072;11.616;2023-04-27T19:35:03;95361.13;;;9.15;73.75
9225;BME280;4647;48.072;11.616;2023-04-27T19:37:43;95366.25;;;9.06;74.29
9225;BME280;4647;48.072;11.616;2023-04-27T19:40:16;95355.06;;;9.04;74.61
9225;BME280;4647;48.072;11.616;2023-04-27T19:42:46;95353.63;;;8.85;75.36
9225;BME280;4647;48.072;11.616;2023-04-27T19:45:15;95368.28;;;8.88;75.86
9225;BME280;4647;48.072;11.616;2023-04-27T19:47:45;95359.03;;;8.85;76.09
9225;BME280;4647;48.072;11.616;2023-04-27T19:50:14;95357.13;;;8.86;75.89
9225;BME280;4647;48.072;11.616;2023-04-27T19:52:55;95334.31;;;8.90;75.00
9225;BME280;4647;48.072;11.616;2023-04-27T19:55:40;95353.56;;;9.00;75.13
9225;BME280;4647;48.072;11.616;2023-04-27T19:58:12;95341.59;;;8.93;74.91
9225;BME280;4647;48.072;11.616;2023-04-27T20:00:46;95357.81;;;8.93;75.33
9225;BME280;4647;48.072;11.616;2023-04-27T20:03:27;95368.22;;;8.95;75.33
9225;BME280;4647;48.072;11.616;2023-04-27T20:05:58;95359.06;;;8.82;75.49
9225;BME280;4647;48.072;11.616;2023-04-27T20:08:30;95368.38;;;8.74;76.34
9225;BME280;4647;48.072;11.616;2023-04-27T20:11:00;95364.91;;;8.73;76.11
9225;BME280;4647;48.072;11.616;2023-04-27T20:13:31;95346.13;;;8.52;76.62
9225;BME280;4647;48.072;11.616;2023-04-27T20:16:04;95371.19;;;8.56;77.09
9225;BME280;4647;48.072;11.616;2023-04-27T20:18:37;95370.44;;;8.52;77.19
9225;BME280;4647;48.072;11.616;2023-04-27T20:21:31;95368.53;;;8.45;77.38
9225;BME280;4647;48.072;11.616;2023-04-27T20:24:22;95364.66;;;8.46;77.54
9225;BME280;4647;48.072;11.616;2023-04-27T20:26:59;95365.47;;;8.32;78.17
9225;BME280;4647;48.072;11.616;2023-04-27T20:29:31;95367.41;;;8.25;78.48
9225;BME280;4647;48.072;11.616;2023-04-27T20:32:03;95357.06;;;8.13;78.81
9225;BME280;4647;48.072;11.616;2023-04-27T20:34:32;95354.78;;;8.11;79.14
9225;BME280;4647;48.072;11.616;2023-04-27T20:37:01;95346.31;;;8.02;79.22
9225;BME280;4647;48.072;11.616;2023-04-27T20:39:38;95349.78;;;7.99;80.00
9225;BME280;4647;48.072;11.616;2023-04-27T20:42:12;95350.19;;;7.94;79.78
9225;BME280;4647;48.072;11.616;2023-04-27T20:44:43;95356.38;;;7.94;79.52
9225;BME280;4647;48.072;11.616;2023-04-27T20:47:15;95354.84;;;7.90;79.71
9225;BME280;4647;48.072;11.616;2023-04-27T20:50:06;95347.16;;;7.85;79.80
9225;BME280;4647;48.072;11.616;2023-04-27T20:52:37;95346.41;;;7.70;80.49
9225;BME280;4647;48.072;11.616;2023-04-27T20:55:29;95340.22;;;7.77;80.32
9225;BME280;4647;48.072;11.616;2023-04-27T20:58:06;95337.50;;;7.80;80.33
9225;BME280;4647;48.072;11.616;2023-04-27T21:00:52;95339.84;;;7.75;80.22
9225;BME280;4647;48.072;11.616;2023-04-27T21:03:23;95339.09;;;7.67;80.43
9225;BME280;4647;48.072;11.616;2023-04-27T21:05:53;95335.66;;;7.59;80.52
9225;BME280;4647;48.072;11.616;2023-04-27T21:08:22;95314.84;;;7.53;80.24
9225;BME280;4647;48.072;11.616;2023-04-27T21:10:54;95339.88;;;7.64;80.30
9225;BME280;4647;48.072;11.616;2023-04-27T21:13:25;95334.91;;;7.48;80.63
9225;BME280;4647;48.072;11.616;2023-04-27T21:16:00;95331.84;;;7.43;80.73
9225;BME280;4647;48.072;11.616;2023-04-27T21:18:29;95334.13;;;7.51;80.46
9225;BME280;4647;48.072;11.616;2023-04-27T21:21:00;95344.53;;;7.42;80.96
9225;BME280;4647;48.072;11.616;2023-04-27T21:23:42;95335.69;;;7.38;81.01
9225;BME280;4647;48.072;11.616;2023-04-27T21:26:19;95314.91;;;7.31;81.06
9225;BME280;4647;48.072;11.616;2023-04-27T21:28:53;95325.28;;;7.29;81.55
9225;BME280;4647;48.072;11.616;2023-04-27T21:31:26;95320.31;;;7.17;82.19
9225;BME280;4647;48.072;11.616;2023-04-27T21:34:14;95319.13;;;7.25;81.91
9225;BME280;4647;48.072;11.616;2023-04-27T21:36:46;95324.53;;;7.25;81.61
9225;BME280;4647;48.072;11.616;2023-04-27T21:39:21;95321.84;;;7.25;81.76
9225;BME280;4647;48.072;11.616;2023-04-27T21:41:56;95322.59;;;7.36;81.12
9225;BME280;4647;48.072;11.616;2023-04-27T21:44:29;95321.84;;;7.36;80.93
9225;BME280;4647;48.072;11.616;2023-04-27T21:47:00;95315.69;;;7.35;81.23
9225;BME280;4647;48.072;11.616;2023-04-27T21:49:30;95306.44;;;7.22;81.64
9225;BME280;4647;48.072;11.616;2023-04-27T21:52:08;95314.13;;;7.27;81.47
9225;BME280;4647;48.072;11.616;2023-04-27T21:54:51;95311.06;;;7.25;81.41
9225;BME280;4647;48.072;11.616;2023-04-27T21:57:29;95308.38;;;7.22;81.30
9225;BME280;4647;48.072;11.616;2023-04-27T21:59:59;95311.44;;;7.24;81.11
9225;BME280;4647;48.072;11.616;2023-04-27T22:05:24;95303.38;;;7.06;81.80
9225;BME280;4647;48.072;11.616;2023-04-27T22:07:58;95304.91;;;7.25;81.25
9225;BME280;4647;48.072;11.616;2023-04-27T22:10:28;95301.06;;;7.15;81.37
9225;BME280;4647;48.072;11.616;2023-04-27T22:12:59;95288.34;;;7.08;81.23
9225;BME280;4647;48.072;11.616;2023-04-27T22:15:28;95298.00;;;7.13;81.23
9225;BME280;4647;48.072;11.616;2023-04-27T22:17:57;95295.28;;;7.06;81.75
9225;BME280;4647;48.072;11.616;2023-04-27T22:20:26;95298.00;;;7.02;81.57
9225;BME280;4647;48.072;11.616;2023-04-27T22:22:55;95299.94;;;6.91;81.96
9225;BME280;4647;48.072;11.616;2023-04-27T22:25:31;95302.63;;;6.98;81.95
9225;BME280;4647;48.072;11.616;2023-04-27T22:28:03;95299.53;;;6.89;82.34
9225;BME280;4647;48.072;11.616;2023-04-27T22:30:40;95308.75;;;6.85;82.67
9225;BME280;4647;48.072;11.616;2023-04-27T22:33:11;95309.56;;;6.89;82.81
9225;BME280;4647;48.072;11.616;2023-04-27T22:35:43;95311.84;;;6.97;82.27
9225;BME280;4647;48.072;11.616;2023-04-27T22:38:17;95309.94;;;6.94;82.55
9225;BME280;4647;48.072;11.616;2023-04-27T22:40:46;95301.84;;;6.91;82.51
9225;BME280;4647;48.072;11.616;2023-04-27T22:43:17;95300.72;;;6.88;82.90
9225;BME280;4647;48.072;11.616;2023-04-27T22:45:47;95299.53;;;6.96;82.49
9225;BME280;4647;48.072;11.616;2023-04-27T22:48:17;95297.22;;;6.95;82.79
9225;BME280;4647;48.072;11.616;2023-04-27T22:50:46;95298.75;;;6.99;82.65
9225;BME280;4647;48.072;11.616;2023-04-27T22:53:15;95299.91;;;7.05;82.23
9225;BME280;4647;48.072;11.616;2023-04-27T22:55:44;95294.91;;;7.00;82.27
9225;BME280;4647;48.072;11.616;2023-04-27T22:58:13;95290.69;;;7.03;82.09
9225;BME280;4647;48.072;11.616;2023-04-27T23:00:44;95294.16;;;6.93;82.62
9225;BME280;4647;48.072;11.616;2023-04-27T23:03:23;95290.28;;;7.04;82.07
9225;BME280;4647;48.072;11.616;2023-04-27T23:06:10;95288.38;;;7.01;81.97
9225;BME280;4647;48.072;11.616;2023-04-27T23:08:39;95284.53;;;7.02;82.04
9225;BME280;4647;48.072;11.616;2023-04-27T23:11:11;95282.22;;;6.97;82.08
9225;BME280;4647;48.072;11.616;2023-04-27T23:13:43;95282.22;;;6.94;82.49
9225;BME280;4647;48.072;11.616;2023-04-27T23:16:18;95285.31;;;6.96;82.25
9225;BME280;4647;48.072;11.616;2023-04-27T23:18:48;95276.84;;;6.94;82.35
9225;BME280;4647;48.072;11.616;2023-04-27T23:21:18;95278.38;;;6.98;81.92
9225;BME280;4647;48.072;11.616;2023-04-27T23:23:47;95280.31;;;6.94;81.93
9225;BME280;4647;48.072;11.616;2023-04-27T23:26:18;95274.53;;;6.89;82.32
9225;BME280;4647;48.072;11.616;2023-04-27T23:28:46;95272.63;;;6.89;82.44
9225;BME280;4647;48.072;11.616;2023-04-27T23:31:17;95274.16;;;6.90;82.63
9225;BME280;4647;48.072;11.616;2023-04-27T23:33:51;95263.38;;;6.97;82.21
9225;BME280;4647;48.072;11.616;2023-04-27T23:36:23;95262.22;;;6.88;82.66
9225;BME280;4647;48.072;11.616;2023-04-27T23:38:57;95267.59;;;6.95;82.18
9225;BME280;4647;48.072;11.616;2023-04-27T23:41:31;95259.53;;;6.81;82.48
9225;BME280;4647;48.072;11.616;2023-04-27T23:44:14;95259.13;;;6.86;82.27
9225;BME280;4647;48.072;11.616;2023-04-27T23:46:57;95257.97;;;6.80;82.53
9225;BME280;4647;48.072;11.616;2023-04-27T23:49:27;95256.44;;;6.75;82.69
9225;BME280;4647;48.072;11.616;2023-04-27T23:51:56;95248.00;;;6.69;82.63
9225;BME280;4647;48.072;11.616;2023-04-27T23:54:28;95251.47;;;6.73;82.62
9225;BME280;4647;48.072;11.616;2023-04-27T23:57:01;95249.91;;;6.76;82.50
9225;BME280;4647;48.072;11.616;2023-04-27T23:59:35;95245.66;;;6.82;82.14
